createdAt,value
2018-08-07T00:02:27.650Z,4.33
2018-08-07T00:04:56.115Z,4.30
2018-08-07T00:07:24.565Z,4.97
2018-08-07T00:09:53.194Z,4.45
2018-08-07T00:12:21.375Z,4.45
2018-08-07T00:14:49.844Z,4.55
2018-08-07T00:17:17.992Z,4.90
2018-08-07T00:19:46.603Z,4.72
2018-08-07T00:22:15.053Z,5.53
2018-08-07T00:24:43.500Z,4.70
2018-08-07T00:27:11.890Z,5.00
2018-08-07T00:29:40.326Z,4.92
2018-08-07T00:32:08.802Z,5.10
2018-08-07T00:34:37.258Z,5.20
2018-08-07T00:37:05.896Z,4.17
2018-08-07T00:39:34.344Z,4.03
2018-08-07T00:42:02.897Z,4.47
2018-08-07T00:44:31.408Z,4.22
2018-08-07T00:46:59.871Z,5.20
2018-08-07T00:49:28.336Z,4.78
2018-08-07T00:51:56.448Z,5.22
2018-08-07T00:54:24.893Z,5.10
2018-08-07T00:56:53.376Z,4.78
2018-08-07T00:59:21.830Z,5.28
2018-08-07T01:01:49.977Z,4.40
2018-08-07T01:04:18.408Z,5.28
2018-08-07T01:06:46.889Z,4.87
2018-08-07T01:09:15.310Z,4.30
2018-08-07T01:11:43.781Z,4.90
2018-08-07T01:14:12.260Z,5.03
2018-08-07T01:16:40.741Z,3.75
2018-08-07T01:19:09.176Z,4.45
2018-08-07T01:21:37.640Z,4.30
2018-08-07T01:24:06.379Z,4.20
2018-08-07T01:26:34.852Z,4.10
2018-08-07T01:29:03.261Z,4.20
2018-08-07T01:31:31.753Z,4.42
2018-08-07T01:33:59.903Z,4.50
2018-08-07T01:36:28.364Z,4.30
2018-08-07T01:38:57.172Z,4.20
2018-08-07T01:41:25.654Z,4.00
2018-08-07T01:43:53.757Z,4.95
2018-08-07T01:46:22.260Z,4.67
2018-08-07T01:48:50.648Z,4.00
2018-08-07T01:51:19.108Z,3.65
2018-08-07T01:53:47.737Z,4.25
2018-08-07T01:56:16.184Z,3.80
2018-08-07T01:58:44.596Z,3.67
2018-08-07T02:01:13.105Z,3.55
2018-08-07T02:03:41.506Z,3.50
2018-08-07T02:06:09.997Z,3.52
2018-08-07T02:08:38.467Z,5.28
2018-08-07T02:11:07.449Z,4.90
2018-08-07T02:13:35.835Z,4.60
2018-08-07T02:16:04.379Z,3.77
2018-08-07T02:18:32.926Z,4.67
2018-08-07T02:21:01.440Z,4.42
2018-08-07T02:23:29.572Z,4.12
2018-08-07T02:25:58.070Z,4.53
2018-08-07T02:28:26.549Z,3.83
2018-08-07T02:30:55.008Z,4.17
2018-08-07T02:33:23.414Z,4.17
2018-08-07T02:35:51.828Z,4.33
2018-08-07T02:38:20.286Z,4.30
2018-08-07T02:40:48.744Z,3.90
2018-08-07T02:43:17.211Z,4.20
2018-08-07T02:45:45.658Z,4.10
2018-08-07T02:48:14.143Z,3.75
2018-08-07T02:50:42.617Z,4.28
2018-08-07T02:53:11.120Z,4.70
2018-08-07T02:55:39.531Z,3.83
2018-08-07T02:58:08.023Z,3.75
2018-08-07T03:00:37.009Z,3.60
2018-08-07T03:03:05.733Z,3.58
2018-08-07T03:05:34.162Z,3.72
2018-08-07T03:08:02.639Z,3.87
2018-08-07T03:10:31.063Z,3.55
2018-08-07T03:12:59.512Z,3.27
2018-08-07T03:15:27.939Z,3.42
2018-08-07T03:17:56.395Z,3.02
2018-08-07T03:20:24.817Z,3.50
2018-08-07T03:22:53.300Z,2.95
2018-08-07T03:25:21.764Z,3.10
2018-08-07T03:27:50.283Z,3.27
2018-08-07T03:30:20.076Z,3.22
2018-08-07T03:32:48.916Z,3.30
2018-08-07T03:35:17.353Z,3.87
2018-08-07T03:37:45.788Z,3.42
2018-08-07T03:40:16.080Z,3.40
2018-08-07T03:42:44.595Z,3.02
2018-08-07T03:45:14.259Z,3.52
2018-08-07T03:47:43.233Z,3.30
2018-08-07T03:50:12.064Z,3.15
2018-08-07T03:52:40.562Z,3.20
2018-08-07T03:55:18.206Z,3.40
2018-08-07T03:57:46.722Z,3.20
2018-08-07T04:00:18.958Z,3.37
2018-08-07T04:02:47.451Z,3.33
2018-08-07T04:05:16.039Z,2.70
2018-08-07T04:07:44.592Z,3.05
2018-08-07T04:10:15.456Z,3.17
2018-08-07T04:12:43.953Z,2.83
2018-08-07T04:15:13.789Z,2.47
2018-08-07T04:17:42.831Z,2.42
2018-08-07T04:20:14.038Z,2.40
2018-08-07T04:22:42.652Z,2.75
2018-08-07T04:25:11.216Z,2.30
2018-08-07T04:27:39.749Z,2.42
2018-08-07T04:30:12.533Z,2.42
2018-08-07T04:32:41.409Z,2.08
2018-08-07T04:35:10.017Z,2.15
2018-08-07T04:37:38.509Z,3.02
2018-08-07T04:40:07.676Z,2.55
2018-08-07T04:42:36.912Z,2.17
2018-08-07T04:45:07.708Z,2.30
2018-08-07T04:47:36.173Z,2.50
2018-08-07T04:50:05.156Z,2.30
2018-08-07T04:52:33.578Z,2.83
2018-08-07T04:55:02.091Z,2.55
2018-08-07T04:57:30.573Z,2.30
2018-08-07T04:59:59.029Z,2.33
2018-08-07T05:02:27.436Z,1.80
2018-08-07T05:04:55.964Z,2.35
2018-08-07T05:07:24.425Z,2.33
2018-08-07T05:09:52.869Z,2.33
2018-08-07T05:12:21.406Z,2.83
2018-08-07T05:14:49.881Z,2.05
2018-08-07T05:17:18.544Z,2.58
2018-08-07T05:19:46.969Z,2.45
2018-08-07T05:22:15.362Z,2.87
2018-08-07T05:24:43.797Z,2.35
2018-08-07T05:27:12.303Z,2.67
2018-08-07T05:29:40.726Z,2.30
2018-08-07T05:32:09.155Z,2.60
2018-08-07T05:34:37.636Z,2.08
2018-08-07T05:37:06.082Z,3.77
2018-08-07T05:39:34.534Z,2.08
2018-08-07T05:42:03.008Z,1.75
2018-08-07T05:44:31.474Z,1.85
2018-08-07T05:47:00.066Z,1.47
2018-08-07T05:49:28.499Z,1.45
2018-08-07T05:51:56.908Z,1.60
2018-08-07T05:54:25.386Z,1.72
2018-08-07T05:56:53.831Z,1.67
2018-08-07T05:59:22.270Z,1.75
2018-08-07T06:01:50.709Z,1.77
2018-08-07T06:04:19.168Z,1.70
2018-08-07T06:06:47.594Z,1.77
2018-08-07T06:09:16.120Z,1.40
2018-08-07T06:11:44.645Z,1.75
2018-08-07T06:14:13.484Z,2.08
2018-08-07T06:16:41.944Z,1.40
2018-08-07T06:19:10.478Z,1.40
2018-08-07T06:21:38.880Z,1.45
2018-08-07T06:24:07.340Z,1.40
2018-08-07T06:26:35.758Z,1.45
2018-08-07T06:29:04.275Z,1.50
2018-08-07T06:31:32.724Z,1.77
2018-08-07T06:34:01.145Z,1.50
2018-08-07T06:36:29.632Z,1.50
2018-08-07T06:38:58.105Z,1.75
2018-08-07T06:41:26.726Z,1.55
2018-08-07T06:43:55.137Z,1.52
2018-08-07T06:46:23.621Z,1.42
2018-08-07T06:48:52.049Z,1.40
2018-08-07T06:51:20.528Z,1.42
2018-08-07T06:53:49.004Z,1.55
2018-08-07T06:56:17.457Z,1.35
2018-08-07T06:58:45.913Z,1.30
2018-08-07T07:01:14.376Z,1.22
2018-08-07T07:03:42.824Z,1.22
2018-08-07T07:06:12.297Z,1.17
2018-08-07T07:08:40.777Z,1.10
2018-08-07T07:11:09.217Z,1.07
2018-08-07T07:13:37.774Z,1.40
2018-08-07T07:16:06.333Z,1.35
2018-08-07T07:18:34.794Z,1.22
2018-08-07T07:21:03.245Z,1.25
2018-08-07T07:23:31.704Z,1.40
2018-08-07T07:26:00.134Z,1.12
2018-08-07T07:28:28.256Z,1.00
2018-08-07T07:30:56.721Z,1.40
2018-08-07T07:33:25.169Z,1.20
2018-08-07T07:35:53.655Z,1.32
2018-08-07T07:38:22.092Z,1.17
2018-08-07T07:40:50.578Z,1.32
2018-08-07T07:43:19.096Z,1.30
2018-08-07T07:45:47.579Z,1.72
2018-08-07T07:48:16.068Z,1.07
2018-08-07T07:50:44.549Z,1.27
2018-08-07T07:53:13.002Z,1.70
2018-08-07T07:55:41.451Z,1.40
2018-08-07T07:58:09.856Z,1.12
2018-08-07T08:00:38.044Z,1.72
2018-08-07T08:03:06.519Z,1.77
2018-08-07T08:05:34.685Z,1.42
2018-08-07T08:08:03.166Z,1.27
2018-08-07T08:10:31.613Z,1.70
2018-08-07T08:13:00.073Z,1.15
2018-08-07T08:15:28.529Z,1.45
2018-08-07T08:17:56.992Z,1.75
2018-08-07T08:20:26.147Z,1.37
2018-08-07T08:22:55.362Z,1.50
2018-08-07T08:25:23.893Z,1.45
2018-08-07T08:27:52.352Z,1.40
2018-08-07T08:30:20.793Z,1.45
2018-08-07T08:32:49.278Z,1.60
2018-08-07T08:35:18.776Z,2.95
2018-08-07T08:37:47.739Z,1.57
2018-08-07T08:40:18.967Z,1.67
2018-08-07T08:42:47.544Z,1.87
2018-08-07T08:45:17.304Z,2.20
2018-08-07T08:47:46.975Z,1.82
2018-08-07T08:50:16.756Z,2.30
2018-08-07T08:52:45.332Z,2.30
2018-08-07T08:55:14.029Z,1.75
2018-08-07T08:57:43.393Z,1.65
2018-08-07T09:00:19.471Z,2.12
2018-08-07T09:02:48.313Z,1.95
2018-08-07T09:05:16.779Z,2.05
2018-08-07T09:07:45.479Z,2.02
2018-08-07T09:10:19.061Z,1.95
2018-08-07T09:12:47.920Z,2.02
2018-08-07T09:15:16.383Z,1.82
2018-08-07T09:17:45.058Z,1.70
2018-08-07T09:20:17.965Z,2.12
2018-08-07T09:22:46.461Z,1.92
2018-08-07T09:25:14.991Z,1.90
2018-08-07T09:27:43.848Z,1.65
2018-08-07T09:30:16.866Z,1.87
2018-08-07T09:32:46.518Z,1.75
2018-08-07T09:35:15.799Z,1.60
2018-08-07T09:37:44.040Z,1.37
2018-08-07T09:40:14.093Z,1.95
2018-08-07T09:42:43.526Z,1.77
2018-08-07T09:45:15.375Z,1.70
2018-08-07T09:47:44.676Z,1.70
2018-08-07T09:50:14.090Z,1.62
2018-08-07T09:52:42.570Z,1.50
2018-08-07T09:55:11.289Z,2.08
2018-08-07T09:57:39.752Z,1.72
2018-08-07T10:00:23.568Z,1.92
2018-08-07T10:02:54.504Z,1.92
2018-08-07T10:05:24.325Z,2.15
2018-08-07T10:07:52.740Z,2.00
2018-08-07T10:10:21.404Z,1.77
2018-08-07T10:12:49.548Z,2.25
2018-08-07T10:15:18.382Z,1.90
2018-08-07T10:17:46.911Z,1.52
2018-08-07T10:20:15.760Z,1.92
2018-08-07T10:22:44.410Z,1.80
2018-08-07T10:25:14.343Z,2.17
2018-08-07T10:27:43.696Z,1.90
2018-08-07T10:30:14.682Z,1.60
2018-08-07T10:32:42.832Z,1.80
2018-08-07T10:35:11.991Z,1.85
2018-08-07T10:37:41.236Z,2.27
2018-08-07T10:40:11.893Z,2.08
2018-08-07T10:42:40.365Z,1.50
2018-08-07T10:45:11.224Z,1.77
2018-08-07T10:47:40.330Z,1.62
2018-08-07T10:50:12.097Z,2.00
2018-08-07T10:52:40.672Z,1.87
2018-08-07T10:55:09.730Z,1.70
2018-08-07T10:57:39.545Z,2.15
2018-08-07T11:00:14.333Z,2.10
2018-08-07T11:02:43.412Z,2.17
2018-08-07T11:05:11.864Z,2.10
2018-08-07T11:07:40.454Z,2.25
2018-08-07T11:10:10.201Z,2.42
2018-08-07T11:12:38.699Z,2.70
2018-08-07T11:15:10.921Z,2.00
2018-08-07T11:17:39.526Z,2.58
2018-08-07T11:20:09.677Z,2.47
2018-08-07T11:22:38.088Z,2.40
2018-08-07T11:25:06.621Z,1.92
2018-08-07T11:27:35.467Z,2.70
2018-08-07T11:30:05.123Z,4.25
2018-08-07T11:32:33.576Z,2.80
2018-08-07T11:35:02.017Z,2.42
2018-08-07T11:37:30.561Z,2.50
2018-08-07T11:39:59.001Z,2.72
2018-08-07T11:42:27.469Z,3.02
2018-08-07T11:44:55.996Z,2.90
2018-08-07T11:47:24.447Z,2.40
2018-08-07T11:49:53.120Z,2.60
2018-08-07T11:52:21.598Z,2.95
2018-08-07T11:54:50.134Z,2.87
2018-08-07T11:57:18.688Z,3.30
2018-08-07T11:59:47.181Z,2.55
2018-08-07T12:02:18.447Z,2.50
2018-08-07T12:04:47.784Z,2.55
2018-08-07T12:07:16.201Z,2.70
2018-08-07T12:09:44.627Z,2.65
2018-08-07T12:12:12.775Z,2.58
2018-08-07T12:14:41.231Z,2.75
2018-08-07T12:17:09.657Z,2.58
2018-08-07T12:19:38.122Z,2.45
2018-08-07T12:22:06.907Z,2.75
2018-08-07T12:24:35.357Z,2.60
2018-08-07T12:27:03.825Z,2.98
2018-08-07T12:29:32.304Z,2.40
2018-08-07T12:32:00.799Z,2.58
2018-08-07T12:34:29.236Z,3.10
2018-08-07T12:36:57.705Z,3.37
2018-08-07T12:39:26.353Z,3.00
2018-08-07T12:41:54.863Z,3.60
2018-08-07T12:44:23.332Z,3.45
2018-08-07T12:46:51.816Z,3.10
2018-08-07T12:49:20.244Z,3.80
2018-08-07T12:51:48.674Z,3.47
2018-08-07T12:54:17.162Z,3.27
2018-08-07T12:56:45.632Z,3.55
2018-08-07T12:59:14.053Z,3.65
2018-08-07T13:01:42.530Z,3.62
2018-08-07T13:04:10.988Z,3.15
2018-08-07T13:06:39.506Z,4.05
2018-08-07T13:09:10.330Z,3.62
2018-08-07T13:11:38.832Z,3.55
2018-08-07T13:14:07.257Z,3.45
2018-08-07T13:16:35.748Z,3.25
2018-08-07T13:19:04.230Z,2.98
2018-08-07T13:21:33.290Z,3.20
2018-08-07T13:24:02.132Z,2.65
2018-08-07T13:26:30.968Z,3.52
2018-08-07T13:28:59.405Z,3.72
2018-08-07T13:31:27.868Z,3.02
2018-08-07T13:33:56.393Z,3.42
2018-08-07T13:36:24.860Z,3.15
2018-08-07T13:38:53.317Z,3.60
2018-08-07T13:41:21.789Z,3.27
2018-08-07T13:43:50.190Z,3.50
2018-08-07T13:46:18.704Z,2.62
2018-08-07T13:48:47.145Z,3.15
2018-08-07T13:51:15.586Z,2.75
2018-08-07T13:53:44.058Z,3.00
2018-08-07T13:56:12.764Z,3.08
2018-08-07T13:58:41.213Z,3.50
2018-08-07T14:01:09.725Z,2.98
2018-08-07T14:03:38.200Z,3.30
2018-08-07T14:06:06.701Z,2.98
2018-08-07T14:08:35.161Z,2.35
2018-08-07T14:11:03.676Z,1.72
2018-08-07T14:13:33.159Z,2.22
2018-08-07T14:16:01.614Z,1.60
2018-08-07T14:18:30.123Z,1.90
2018-08-07T14:20:58.588Z,1.70
2018-08-07T14:23:27.259Z,1.85
2018-08-07T14:25:55.749Z,2.20
2018-08-07T14:28:24.264Z,2.00
2018-08-07T14:30:52.760Z,1.90
2018-08-07T14:33:20.927Z,2.42
2018-08-07T14:35:49.495Z,2.55
2018-08-07T14:38:17.969Z,2.50
2018-08-07T14:40:46.458Z,2.42
2018-08-07T14:43:14.945Z,2.15
2018-08-07T14:45:43.470Z,2.10
2018-08-07T14:48:11.976Z,2.25
2018-08-07T14:50:40.448Z,2.25
2018-08-07T14:53:08.925Z,1.75
2018-08-07T14:55:37.376Z,1.85
2018-08-07T14:58:06.071Z,2.00
2018-08-07T15:00:34.496Z,1.95
2018-08-07T15:03:02.964Z,2.20
2018-08-07T15:05:31.393Z,2.25
2018-08-07T15:07:59.515Z,2.47
2018-08-07T15:10:28.412Z,2.20
2018-08-07T15:12:56.933Z,2.58
2018-08-07T15:15:28.699Z,2.83
2018-08-07T15:17:57.208Z,2.67
2018-08-07T15:20:27.225Z,2.37
2018-08-07T15:22:56.192Z,2.15
2018-08-07T15:25:25.030Z,2.72
2018-08-07T15:27:53.572Z,2.40
2018-08-07T15:30:25.512Z,2.60
2018-08-07T15:32:54.403Z,2.83
2018-08-07T15:35:24.212Z,3.00
2018-08-07T15:37:52.647Z,2.50
2018-08-07T15:40:21.473Z,2.77
2018-08-07T15:42:49.640Z,2.65
2018-08-07T15:45:20.074Z,2.58
2018-08-07T15:47:48.668Z,2.55
2018-08-07T15:50:18.893Z,2.77
2018-08-07T15:52:48.887Z,2.72
2018-08-07T15:55:19.252Z,3.02
2018-08-07T15:57:47.412Z,2.90
2018-08-07T16:00:21.276Z,2.90
2018-08-07T16:02:49.856Z,2.60
2018-08-07T16:05:18.727Z,2.52
2018-08-07T16:07:47.598Z,3.15
2018-08-07T16:10:17.173Z,2.90
2018-08-07T16:12:46.528Z,2.60
2018-08-07T16:15:14.624Z,2.58
2018-08-07T16:17:43.793Z,2.35
2018-08-07T16:20:12.438Z,2.85
2018-08-07T16:22:41.178Z,3.30
2018-08-07T16:25:11.660Z,3.00
2018-08-07T16:27:41.270Z,3.10
2018-08-07T16:30:12.285Z,2.75
2018-08-07T16:32:40.750Z,2.50
2018-08-07T16:35:09.292Z,3.02
2018-08-07T16:37:37.812Z,2.92
2018-08-07T16:40:08.850Z,2.62
2018-08-07T16:42:37.427Z,3.00
2018-08-07T16:45:07.781Z,3.50
2018-08-07T16:47:36.388Z,2.80
2018-08-07T16:50:05.236Z,2.70
2018-08-07T16:52:33.838Z,2.77
2018-08-07T16:55:02.452Z,2.72
2018-08-07T16:57:30.980Z,2.70
2018-08-07T16:59:59.213Z,2.30
2018-08-07T17:02:27.654Z,2.85
2018-08-07T17:04:56.147Z,2.33
2018-08-07T17:07:24.598Z,2.40
2018-08-07T17:09:53.381Z,2.58
2018-08-07T17:12:21.960Z,2.50
2018-08-07T17:14:50.394Z,2.65
2018-08-07T17:17:19.066Z,2.40
2018-08-07T17:19:47.942Z,2.50
2018-08-07T17:22:16.477Z,2.50
2018-08-07T17:24:44.994Z,2.25
2018-08-07T17:27:13.489Z,2.67
2018-08-07T17:29:42.053Z,3.58
2018-08-07T17:32:10.661Z,2.77
2018-08-07T17:34:39.160Z,2.50
2018-08-07T17:37:07.648Z,2.52
2018-08-07T17:39:36.221Z,2.50
2018-08-07T17:42:04.781Z,2.50
2018-08-07T17:44:33.282Z,2.45
2018-08-07T17:47:01.793Z,2.55
2018-08-07T17:49:30.329Z,2.47
2018-08-07T17:51:58.737Z,2.25
2018-08-07T17:54:27.252Z,2.50
2018-08-07T17:56:55.725Z,2.15
2018-08-07T17:59:24.215Z,2.27
2018-08-07T18:01:52.717Z,2.50
2018-08-07T18:04:21.210Z,2.33
2018-08-07T18:06:49.700Z,2.37
2018-08-07T18:09:18.156Z,2.33
2018-08-07T18:11:46.676Z,2.25
2018-08-07T18:14:14.948Z,2.58
2018-08-07T18:16:43.446Z,2.25
2018-08-07T18:19:11.979Z,2.55
2018-08-07T18:21:40.140Z,2.08
2018-08-07T18:24:08.698Z,2.95
2018-08-07T18:26:37.261Z,2.75
2018-08-07T18:29:05.720Z,3.00
2018-08-07T18:31:34.194Z,2.30
2018-08-07T18:34:02.608Z,2.45
2018-08-07T18:36:31.096Z,2.55
2018-08-07T18:38:59.725Z,2.60
2018-08-07T18:41:28.195Z,2.60
2018-08-07T18:43:56.597Z,2.55
2018-08-07T18:46:25.103Z,2.67
2018-08-07T18:48:54.154Z,2.70
2018-08-07T18:51:22.901Z,2.90
2018-08-07T18:53:51.334Z,2.40
2018-08-07T18:56:19.790Z,2.65
2018-08-07T18:58:48.191Z,3.22
2018-08-07T19:01:16.656Z,2.65
2018-08-07T19:03:45.141Z,2.70
2018-08-07T19:06:13.712Z,2.70
2018-08-07T19:08:42.128Z,2.60
2018-08-07T19:11:10.610Z,3.02
2018-08-07T19:13:39.044Z,3.10
2018-08-07T19:16:08.201Z,3.17
2018-08-07T19:18:36.335Z,3.40
2018-08-07T19:21:04.841Z,2.65
2018-08-07T19:23:33.296Z,2.87
2018-08-07T19:26:01.718Z,3.08
2018-08-07T19:28:30.148Z,3.08
2018-08-07T19:30:58.624Z,3.10
2018-08-07T19:33:27.077Z,2.75
2018-08-07T19:35:55.570Z,3.20
2018-08-07T19:38:24.069Z,3.60
2018-08-07T19:40:52.244Z,2.87
2018-08-07T19:43:20.769Z,3.20
2018-08-07T19:45:49.304Z,3.60
2018-08-07T19:48:17.729Z,2.95
2018-08-07T19:50:46.465Z,3.40
2018-08-07T19:53:15.514Z,3.37
2018-08-07T19:55:43.991Z,3.02
2018-08-07T19:58:12.460Z,3.50
2018-08-07T20:00:40.910Z,3.47
2018-08-07T20:03:09.394Z,3.83
2018-08-07T20:05:37.864Z,3.27
2018-08-07T20:08:06.694Z,3.40
2018-08-07T20:10:35.321Z,3.05
2018-08-07T20:13:03.888Z,4.03
2018-08-07T20:15:32.393Z,3.27
2018-08-07T20:18:00.874Z,3.27
2018-08-07T20:20:29.323Z,3.00
2018-08-07T20:22:57.842Z,3.30
2018-08-07T20:25:26.760Z,3.72
2018-08-07T20:27:54.988Z,3.65
2018-08-07T20:30:24.446Z,3.33
2018-08-07T20:32:54.648Z,4.00
2018-08-07T20:35:22.956Z,3.80
2018-08-07T20:37:51.463Z,3.77
2018-08-07T20:40:20.931Z,3.60
2018-08-07T20:42:49.183Z,3.58
2018-08-07T20:45:18.220Z,3.50
2018-08-07T20:47:46.743Z,3.40
2018-08-07T20:50:19.848Z,3.37
2018-08-07T20:52:48.856Z,3.65
2018-08-07T20:55:17.463Z,3.58
2018-08-07T20:57:45.928Z,3.92
2018-08-07T21:00:22.784Z,3.80
2018-08-07T21:02:51.335Z,3.90
2018-08-07T21:05:19.957Z,3.83
2018-08-07T21:07:48.444Z,3.95
2018-08-07T21:10:19.683Z,3.50
2018-08-07T21:12:48.136Z,3.37
2018-08-07T21:15:16.575Z,3.35
2018-08-07T21:17:45.075Z,3.80
2018-08-07T21:20:15.988Z,3.80
2018-08-07T21:22:44.639Z,3.52
2018-08-07T21:25:18.552Z,4.05
2018-08-07T21:27:48.197Z,3.27
2018-08-07T21:30:24.543Z,3.83
2018-08-07T21:32:53.053Z,3.37
2018-08-07T21:35:21.502Z,3.62
2018-08-07T21:37:50.016Z,3.47
2018-08-07T21:40:19.673Z,4.10
2018-08-07T21:42:48.926Z,3.37
2018-08-07T21:45:17.425Z,4.00
2018-08-07T21:47:45.856Z,3.37
2018-08-07T21:50:15.965Z,4.33
2018-08-07T21:52:44.499Z,3.62
2018-08-07T21:55:14.296Z,3.95
2018-08-07T21:57:42.866Z,4.08
2018-08-07T22:00:15.854Z,4.47
2018-08-07T22:02:44.400Z,3.77
2018-08-07T22:05:12.958Z,3.75
2018-08-07T22:07:41.448Z,3.98
2018-08-07T22:10:16.643Z,4.33
2018-08-07T22:12:45.555Z,4.97
2018-08-07T22:15:14.811Z,4.47
2018-08-07T22:17:43.413Z,3.90
2018-08-07T22:20:12.037Z,4.03
2018-08-07T22:22:40.511Z,4.53
2018-08-07T22:25:09.538Z,4.85
2018-08-07T22:27:38.032Z,3.90
2018-08-07T22:30:09.438Z,4.37
2018-08-07T22:32:37.875Z,3.62
2018-08-07T22:35:07.370Z,4.00
2018-08-07T22:37:35.770Z,4.53
2018-08-07T22:40:04.811Z,5.03
2018-08-07T22:42:33.549Z,4.03
2018-08-07T22:45:02.080Z,3.92
2018-08-07T22:47:30.549Z,4.35
2018-08-07T22:49:59.107Z,4.10
2018-08-07T22:52:27.662Z,4.22
2018-08-07T22:54:56.102Z,4.50
2018-08-07T22:57:24.579Z,4.65
2018-08-07T22:59:53.059Z,3.92
2018-08-07T23:02:21.220Z,3.92
2018-08-07T23:04:49.716Z,3.65
2018-08-07T23:07:18.144Z,4.00
2018-08-07T23:09:46.645Z,3.70
2018-08-07T23:12:15.079Z,4.10
2018-08-07T23:14:43.540Z,4.45
2018-08-07T23:17:12.020Z,3.50
2018-08-07T23:19:40.493Z,4.15
2018-08-07T23:22:08.984Z,4.53
2018-08-07T23:24:37.428Z,3.47
2018-08-07T23:27:05.844Z,3.87
2018-08-07T23:29:34.271Z,3.98
2018-08-07T23:32:02.483Z,3.90
2018-08-07T23:34:30.917Z,3.40
2018-08-07T23:36:59.353Z,4.37
2018-08-07T23:39:27.902Z,4.80
2018-08-07T23:41:56.312Z,5.03
2018-08-07T23:44:24.784Z,6.30
2018-08-07T23:46:53.578Z,5.00
2018-08-07T23:49:50.549Z,4.67
2018-08-07T23:52:18.956Z,4.65
2018-08-07T23:54:47.361Z,4.85
2018-08-07T23:57:16.044Z,4.22
2018-08-07T23:59:44.518Z,4.53
